Time;durP1;ratioP1;P1;durP2;ratioP2;P2;SDS_P1;SDS_P2;PMS_P1;PMS_P2;Temp;Humidity;BMP_temperature;BMP_pressure;BME280_temperature;BME280_humidity;BME280_pressure;Samples;Min_cycle;Max_cycle;Signal;HPM_P1;HPM_P2
2024/02/06 00:00:17;;;;;;;17.40;4.80;;;;;;;8.15;100.00;99880.47;5058353;28;20499;-77
2024/02/06 00:02:42;;;;;;;20.30;4.70;;;;;;;6.55;100.00;99668.72;5057347;28;20194;-76
2024/02/06 00:05:08;;;;;;;17.57;5.17;;;;;;;6.38;100.00;99599.03;5056991;28;20213;-77
2024/02/06 00:07:33;;;;;;;19.70;4.13;;;;;;;6.66;100.00;99640.69;5055948;28;20217;-75
2024/02/06 00:09:59;;;;;;;17.23;3.60;;;;;;;7.07;100.00;99709.03;5053860;28;20619;-77
2024/02/06 00:12:25;;;;;;;13.10;3.90;;;;;;;7.15;100.00;99767.50;5060180;28;20679;-77
2024/02/06 00:14:50;;;;;;;21.37;4.63;;;;;;;7.58;100.00;99777.78;5052822;28;20441;-77
2024/02/06 00:17:16;;;;;;;18.37;3.90;;;;;;;8.60;100.00;99966.19;5057928;28;20179;-76
2024/02/06 00:19:41;;;;;;;16.17;4.00;;;;;;;7.20;100.00;99743.69;5052789;28;20696;-76
2024/02/06 00:22:07;;;;;;;13.00;3.20;;;;;;;8.81;100.00;100038.13;5062894;28;20562;-76
2024/02/06 00:24:34;;;;;;;13.33;3.70;;;;;;;7.90;100.00;99875.75;5060228;28;20217;-76
2024/02/06 00:26:59;;;;;;;12.90;3.47;;;;;;;6.96;100.00;99729.09;5055036;28;20186;-76
2024/02/06 00:29:25;;;;;;;22.70;4.20;;;;;;;7.74;100.00;99859.31;5055039;28;20508;-77
2024/02/06 00:31:51;;;;;;;13.70;4.03;;;;;;;6.94;100.00;99725.81;5053539;28;20223;-77
2024/02/06 00:34:18;;;;;;;16.10;3.67;;;;;;;6.57;100.00;99642.72;5056844;28;20457;-77
2024/02/06 00:36:44;;;;;;;18.03;4.27;;;;;;;8.16;100.00;99930.22;5056908;28;20241;-75
2024/02/06 00:39:10;;;;;;;14.37;3.17;;;;;;;7.70;100.00;99858.91;5052959;28;20476;-76
2024/02/06 00:41:35;;;;;;;12.90;4.40;;;;;;;7.45;100.00;99799.94;5055617;28;20307;-77
2024/02/06 00:44:01;;;;;;;20.17;3.90;;;;;;;7.06;100.00;99750.03;5057256;28;20193;-76
2024/02/06 00:46:26;;;;;;;23.77;4.60;;;;;;;7.65;100.00;99866.69;5056424;28;20207;-76
2024/02/06 00:48:53;;;;;;;14.67;3.80;;;;;;;6.70;100.00;99676.56;5057609;28;20233;-76
2024/02/06 00:51:19;;;;;;;14.60;4.67;;;;;;;8.68;100.00;100016.78;5053417;28;20452;-77
2024/02/06 00:53:45;;;;;;;16.77;4.20;;;;;;;6.34;100.00;99598.59;5054351;28;20516;-76
2024/02/06 00:56:10;;;;;;;17.77;4.10;;;;;;;7.33;100.00;99757.03;5052823;28;20442;-76
2024/02/06 00:58:36;;;;;;;13.90;3.20;;;;;;;7.21;100.00;99772.84;5057979;28;20222;-76
2024/02/06 01:01:04;;;;;;;18.93;3.97;;;;;;;7.63;100.00;99831.38;5051920;28;20182;-76
2024/02/06 01:03:29;;;;;;;17.80;3.77;;;;;;;6.56;100.00;99625.06;5056676;28;20191;-76
2024/02/06 01:05:54;;;;;;;16.90;3.10;;;;;;;8.12;100.00;99918.28;5053535;28;20507;-77
2024/02/06 01:08:20;;;;;;;17.70;4.00;;;;;;;7.67;100.00;99841.44;5053376;28;20860;-76
2024/02/06 01:10:46;;;;;;;25.50;3.87;;;;;;;6.95;100.00;99696.28;5056269;28;20192;-77
2024/02/06 01:13:11;;;;;;;18.00;4.53;;;;;;;6.26;100.00;99611.28;5058479;28;20270;-77
2024/02/06 01:15:37;;;;;;;15.67;3.40;;;;;;;6.38;100.00;99633.66;5058497;28;20187;-76
2024/02/06 01:18:02;;;;;;;16.70;4.47;;;;;;;7.70;100.00;99801.00;5059843;28;20633;-75
2024/02/06 01:20:28;;;;;;;13.37;4.00;;;;;;;7.35;100.00;99779.00;5060529;28;20183;-76
2024/02/06 01:22:53;;;;;;;17.03;4.40;;;;;;;7.92;100.00;99851.50;5064422;28;20190;-76
2024/02/06 01:25:19;;;;;;;15.47;3.70;;;;;;;7.45;100.00;99759.94;5060918;28;20197;-76
2024/02/06 01:27:45;;;;;;;18.73;4.77;;;;;;;7.57;100.00;99784.16;5060707;28;20214;-76
2024/02/06 01:30:11;;;;;;;17.07;4.20;;;;;;;8.14;100.00;99884.16;5060155;28;20440;-76
2024/02/06 01:32:37;;;;;;;15.80;4.00;;;;;;;7.93;100.00;99850.50;5057222;28;20221;-75
2024/02/06 01:35:03;;;;;;;11.70;3.70;;;;;;;7.16;100.00;99710.47;5061809;28;20446;-75
2024/02/06 01:37:28;;;;;;;14.13;3.83;;;;;;;6.92;100.00;99659.38;5060773;28;20465;-76
2024/02/06 01:39:54;;;;;;;23.13;4.87;;;;;;;7.80;100.00;99813.91;5061969;28;20515;-77
2024/02/06 01:42:19;;;;;;;19.27;4.63;;;;;;;6.60;100.00;99591.69;5064519;28;20187;-76
2024/02/06 01:44:45;;;;;;;16.43;4.30;;;;;;;5.90;100.00;99529.84;5065052;28;20249;-76
2024/02/06 01:47:13;;;;;;;21.40;4.70;;;;;;;7.57;100.00;99786.81;5063556;28;20229;-76
2024/02/06 01:49:40;;;;;;;21.37;4.43;;;;;;;8.13;100.00;99859.31;5062899;28;20179;-75
2024/02/06 01:52:07;;;;;;;11.83;3.83;;;;;;;7.31;100.00;99721.75;5065694;28;20545;-75
2024/02/06 01:54:33;;;;;;;17.87;5.00;;;;;;;6.62;100.00;99615.44;5061315;28;20453;-77
2024/02/06 01:56:59;;;;;;;19.07;4.80;;;;;;;6.48;100.00;99556.00;5065225;28;20460;-76
2024/02/06 01:59:25;;;;;;;17.83;4.30;;;;;;;7.91;100.00;99831.19;5064849;28;20444;-76
2024/02/06 02:01:51;;;;;;;16.90;4.30;;;;;;;6.41;100.00;99566.66;5061508;28;20446;-77
2024/02/06 02:04:16;;;;;;;15.27;4.43;;;;;;;7.68;100.00;99784.34;5063043;28;20823;-76
2024/02/06 02:06:42;;;;;;;15.87;5.10;;;;;;;8.34;100.00;99916.22;5063413;28;20187;-76
2024/02/06 02:09:10;;;;;;;15.40;6.13;;;;;;;8.16;100.00;99871.44;5058271;28;20841;-77
2024/02/06 02:11:36;;;;;;;18.43;5.73;;;;;;;6.88;100.00;99663.44;5058355;28;21002;-77
2024/02/06 02:14:02;;;;;;;25.20;6.30;;;;;;;6.68;100.00;99596.84;5059199;28;20926;-76
2024/02/06 02:16:27;;;;;;;23.93;6.87;;;;;;;6.59;100.00;99624.66;5060647;28;20220;-76
2024/02/06 02:18:55;;;;;;;21.27;6.37;;;;;;;6.61;100.00;99635.13;5057531;28;20214;-77
2024/02/06 02:21:20;;;;;;;17.70;5.93;;;;;;;6.94;100.00;99660.00;5062104;28;20670;-76
2024/02/06 02:23:46;;;;;;;16.53;5.10;;;;;;;6.32;100.00;99530.59;5058074;28;20441;-76
2024/02/06 02:26:16;;;;;;;18.97;5.07;;;;;;;6.59;100.00;99568.72;5063900;28;20622;-77
2024/02/06 02:28:42;;;;;;;16.23;4.33;;;;;;;8.09;100.00;99827.88;5060875;28;20215;-77
2024/02/06 02:31:09;;;;;;;15.63;3.97;;;;;;;7.98;100.00;99829.31;5061657;28;20465;-76
2024/02/06 02:33:36;;;;;;;15.80;4.57;;;;;;;8.24;100.00;99833.00;5065695;28;20528;-77
2024/02/06 02:36:05;;;;;;;20.07;4.73;;;;;;;7.88;100.00;99803.03;5064479;28;20444;-75
2024/02/06 02:38:32;;;;;;;18.73;5.30;;;;;;;7.50;100.00;99741.47;5063815;28;20459;-76
2024/02/06 02:40:57;;;;;;;16.90;3.80;;;;;;;7.07;100.00;99682.34;5063604;28;20469;-76
2024/02/06 02:43:24;;;;;;;14.33;3.50;;;;;;;7.40;100.00;99749.84;5078810;22;20540;-74
2024/02/06 02:45:49;;;;;;;18.90;3.90;;;;;;;7.92;100.00;99822.94;5057473;28;20190;-74
2024/02/06 02:48:15;;;;;;;21.43;4.50;;;;;;;7.90;100.00;99792.97;5054062;28;20487;-74
2024/02/06 02:50:40;;;;;;;19.80;4.60;;;;;;;7.22;100.00;99656.31;5061362;28;20272;-74
2024/02/06 02:53:06;;;;;;;17.93;3.80;;;;;;;7.43;100.00;99703.28;5060899;28;20259;-74
2024/02/06 02:55:33;;;;;;;14.90;4.30;;;;;;;7.58;100.00;99767.09;5056848;28;20636;-74
2024/02/06 02:57:59;;;;;;;20.17;5.60;;;;;;;8.00;100.00;99816.59;5057447;28;20211;-74
2024/02/06 03:00:25;;;;;;;16.90;4.90;;;;;;;8.11;100.00;99793.78;5058476;28;20606;-74
2024/02/06 03:02:50;;;;;;;18.40;4.67;;;;;;;7.02;100.00;99653.63;5060253;28;20820;-75
2024/02/06 03:05:16;;;;;;;17.87;4.13;;;;;;;9.39;100.00;100021.38;5057093;28;20187;-74
2024/02/06 03:07:45;;;;;;;18.90;4.57;;;;;;;8.02;100.00;99805.72;5061689;28;20255;-74
2024/02/06 03:10:10;;;;;;;19.27;4.60;;;;;;;7.23;100.00;99629.44;5056292;28;20583;-74
2024/02/06 03:12:35;;;;;;;23.83;4.30;;;;;;;6.61;100.00;99577.34;5056404;28;20997;-74
2024/02/06 03:15:03;;;;;;;22.00;4.93;;;;;;;7.17;100.00;99616.09;5060024;28;20195;-74
2024/02/06 03:17:29;;;;;;;20.17;4.33;;;;;;;8.51;100.00;99844.50;5062090;28;20505;-74
2024/02/06 03:19:54;;;;;;;16.13;4.70;;;;;;;7.93;100.00;99783.75;5058694;28;20460;-74
2024/02/06 03:22:21;;;;;;;20.03;4.80;;;;;;;6.92;100.00;99583.91;5057861;28;20184;-74
2024/02/06 03:24:46;;;;;;;18.77;4.40;;;;;;;8.22;100.00;99819.84;5058575;28;20264;-74
2024/02/06 03:27:12;;;;;;;19.70;4.73;;;;;;;8.01;100.00;99785.34;5057049;28;20841;-74
2024/02/06 03:29:37;;;;;;;23.30;5.00;;;;;;;7.19;100.00;99606.03;5054781;28;20534;-74
2024/02/06 03:32:04;;;;;;;18.40;4.30;;;;;;;7.14;100.00;99633.31;5057492;28;20245;-74
2024/02/06 03:34:29;;;;;;;27.23;5.17;;;;;;;7.14;100.00;99592.50;5062573;28;20191;-74
2024/02/06 03:36:55;;;;;;;17.27;4.67;;;;;;;7.22;100.00;99643.78;5056208;28;20448;-74
2024/02/06 03:39:22;;;;;;;22.13;5.00;;;;;;;7.57;100.00;99669.41;5057621;28;20630;-74
2024/02/06 03:41:47;;;;;;;18.27;4.50;;;;;;;7.03;100.00;99631.28;5055923;28;20202;-74
2024/02/06 03:44:14;;;;;;;25.30;5.30;;;;;;;8.10;100.00;99750.22;5059691;28;20540;-74
2024/02/06 03:46:40;;;;;;;25.33;4.80;;;;;;;7.18;100.00;99621.22;5055705;28;20191;-74
2024/02/06 03:49:07;;;;;;;17.60;3.63;;;;;;;7.13;100.00;99589.03;5059535;28;20875;-74
2024/02/06 03:51:32;;;;;;;18.03;4.23;;;;;;;9.39;100.00;99948.28;5056967;28;20604;-74
2024/02/06 03:53:58;;;;;;;27.87;4.73;;;;;;;7.88;100.00;99744.28;5055546;28;20563;-74
2024/02/06 03:56:23;;;;;;;30.33;5.67;;;;;;;7.25;100.00;99658.56;5054895;28;20214;-74
2024/02/06 03:58:49;;;;;;;20.07;4.77;;;;;;;8.07;100.00;99819.25;5061943;28;21924;-74
2024/02/06 04:01:14;;;;;;;20.53;4.47;;;;;;;7.20;100.00;99643.19;5069640;28;20187;-74
2024/02/06 04:03:43;;;;;;;23.93;4.83;;;;;;;9.36;100.00;99933.47;5057172;28;20182;-74
2024/02/06 04:06:15;;;;;;;23.27;4.77;;;;;;;8.46;100.00;99807.69;5058310;28;20211;-74
2024/02/06 04:08:41;;;;;;;22.70;4.37;;;;;;;6.96;100.00;99543.28;5062291;28;20456;-74
2024/02/06 04:11:09;;;;;;;18.67;5.40;;;;;;;7.02;100.00;99577.13;5056084;28;20432;-74
2024/02/06 04:13:35;;;;;;;30.67;5.77;;;;;;;8.68;100.00;99821.63;5061264;28;20445;-74
2024/02/06 04:16:00;;;;;;;19.73;5.60;;;;;;;8.85;100.00;99910.19;5059513;28;20421;-74
2024/02/06 04:18:27;;;;;;;20.97;5.43;;;;;;;8.69;100.00;99874.03;5056836;28;20454;-74
2024/02/06 04:20:52;;;;;;;30.77;6.10;;;;;;;8.35;100.00;99766.38;5060672;28;20967;-74
2024/02/06 04:23:18;;;;;;;21.10;4.93;;;;;;;7.20;100.00;99595.19;5058898;28;20941;-74
2024/02/06 04:25:43;;;;;;;20.50;4.97;;;;;;;7.81;100.00;99691.94;5063551;28;20185;-74
2024/02/06 04:28:09;;;;;;;25.20;4.80;;;;;;;7.58;100.00;99673.69;5056217;28;20634;-74
2024/02/06 04:30:35;;;;;;;19.83;4.73;;;;;;;7.17;100.00;99584.09;5055789;28;20184;-74
2024/02/06 04:33:00;;;;;;;23.67;5.00;;;;;;;8.54;100.00;99842.22;5055527;28;20211;-74
2024/02/06 04:35:26;;;;;;;22.87;4.80;;;;;;;8.07;100.00;99779.19;5057581;28;20214;-74
2024/02/06 04:37:51;;;;;;;17.80;3.97;;;;;;;7.65;100.00;99683.34;5055573;28;20647;-74
2024/02/06 04:40:17;;;;;;;21.30;5.07;;;;;;;8.33;100.00;99757.75;5053137;28;20187;-75
2024/02/06 04:42:43;;;;;;;23.70;4.77;;;;;;;8.13;100.00;99763.16;5057867;28;20644;-74
2024/02/06 04:45:09;;;;;;;17.20;4.20;;;;;;;8.37;100.00;99769.66;5058041;28;20648;-74
2024/02/06 04:47:34;;;;;;;20.73;4.97;;;;;;;7.79;100.00;99700.16;5057942;28;20206;-74
2024/02/06 04:50:00;;;;;;;25.13;4.40;;;;;;;8.02;100.00;99722.91;5053127;28;20433;-74
2024/02/06 04:52:26;;;;;;;22.27;4.20;;;;;;;8.44;100.00;99827.63;5052755;28;20213;-74
2024/02/06 04:54:52;;;;;;;17.83;4.07;;;;;;;8.27;100.00;99808.53;5055925;28;20696;-74
2024/02/06 04:57:17;;;;;;;21.10;5.67;;;;;;;8.14;100.00;99780.00;5055727;28;20528;-74
2024/02/06 04:59:43;;;;;;;23.57;5.10;;;;;;;8.00;100.00;99765.84;5054899;28;20269;-74
2024/02/06 05:02:08;;;;;;;22.90;4.73;;;;;;;9.30;100.00;99952.25;5052357;28;20184;-74
2024/02/06 05:04:34;;;;;;;18.57;4.50;;;;;;;9.51;100.00;100005.47;5054197;28;20195;-74
2024/02/06 05:07:00;;;;;;;24.10;4.70;;;;;;;8.02;100.00;99729.06;5055688;28;20210;-74
2024/02/06 05:09:25;;;;;;;16.53;4.03;;;;;;;7.95;100.00;99712.22;5057780;28;20444;-74
2024/02/06 05:11:51;;;;;;;20.93;4.60;;;;;;;9.01;100.00;99925.78;5056240;28;20733;-74
2024/02/06 05:14:18;;;;;;;16.67;3.40;;;;;;;7.01;100.00;99583.50;5060248;28;20186;-74
2024/02/06 05:16:43;;;;;;;18.90;4.53;;;;;;;9.20;100.00;99955.34;5061400;28;20286;-74
2024/02/06 05:19:14;;;;;;;16.50;3.83;;;;;;;8.53;100.00;99807.66;5062027;28;20540;-74
2024/02/06 05:21:40;;;;;;;18.53;4.20;;;;;;;8.50;100.00;99842.84;5060300;28;20182;-74
2024/02/06 05:24:07;;;;;;;20.90;4.13;;;;;;;8.67;100.00;99819.97;5064491;28;20444;-74
2024/02/06 05:26:32;;;;;;;19.60;4.67;;;;;;;7.52;100.00;99667.38;5061942;28;20788;-74
2024/02/06 05:28:58;;;;;;;22.20;4.73;;;;;;;8.14;100.00;99763.97;5059602;28;20453;-74
2024/02/06 05:31:23;;;;;;;25.53;4.83;;;;;;;8.06;100.00;99740.97;5059081;28;20206;-74
2024/02/06 05:33:49;;;;;;;27.73;4.17;;;;;;;8.34;100.00;99779.97;5058784;28;20664;-74
2024/02/06 05:36:14;;;;;;;15.63;4.83;;;;;;;9.52;100.00;99961.63;5060694;28;20194;-74
2024/02/06 05:38:40;;;;;;;18.60;3.90;;;;;;;7.97;100.00;99696.03;5066512;28;20199;-74
2024/02/06 05:41:09;;;;;;;21.77;4.53;;;;;;;7.47;100.00;99629.81;5063819;28;20206;-74
2024/02/06 05:43:35;;;;;;;25.57;4.20;;;;;;;9.49;100.00;99928.06;5061788;28;20194;-74
2024/02/06 05:46:00;;;;;;;18.23;4.73;;;;;;;8.31;100.00;99733.09;5056139;28;20476;-74
2024/02/06 05:48:53;;;;;;;;;;;;;;;;;;;;;
2024/02/06 05:51:19;;;;;;;19.73;4.27;;;;;;;8.33;100.00;99751.56;5062746;28;20221;-74
2024/02/06 05:53:45;;;;;;;20.40;5.87;;;;;;;7.14;100.00;99560.50;5057542;28;20441;-74
2024/02/06 05:56:10;;;;;;;17.13;4.23;;;;;;;9.42;100.00;99868.38;5055539;28;20183;-74
2024/02/06 05:58:42;;;;;;;16.37;4.07;;;;;;;9.36;100.00;99857.72;5064843;28;20226;-74
2024/02/06 06:01:08;;;;;;;15.87;4.40;;;;;;;8.42;100.00;99688.91;5065999;28;20182;-74
2024/02/06 06:03:33;;;;;;;20.00;4.63;;;;;;;8.35;100.00;99728.97;5065205;28;20551;-74
2024/02/06 06:06:02;;;;;;;18.20;4.17;;;;;;;7.61;100.00;99612.75;5066151;28;20520;-74
2024/02/06 06:08:28;;;;;;;19.07;4.90;;;;;;;8.23;100.00;99709.28;5062417;28;20286;-74
2024/02/06 06:10:56;;;;;;;18.67;4.87;;;;;;;7.99;100.00;99659.25;5066112;28;20543;-74
2024/02/06 06:13:24;;;;;;;23.43;4.00;;;;;;;8.02;100.00;99632.13;5064756;28;20187;-74
2024/02/06 06:15:49;;;;;;;20.70;4.07;;;;;;;8.47;100.00;99733.69;5066469;28;20457;-74
2024/02/06 06:18:15;;;;;;;23.07;3.87;;;;;;;7.65;100.00;99619.28;5062525;28;20464;-74
2024/02/06 06:20:40;;;;;;;22.10;4.30;;;;;;;8.73;100.00;99730.06;5068677;28;20215;-74
2024/02/06 06:23:06;;;;;;;21.13;3.90;;;;;;;8.35;100.00;99691.56;5073400;28;20176;-74
2024/02/06 06:25:31;;;;;;;19.50;5.07;;;;;;;8.83;100.00;99758.00;5068896;28;20562;-74
2024/02/06 06:27:57;;;;;;;17.50;3.97;;;;;;;8.20;100.00;99699.03;5056677;28;20344;-74
2024/02/06 06:30:23;;;;;;;31.40;4.70;;;;;;;7.21;100.00;99513.31;5058148;28;20225;-74
2024/02/06 06:32:49;;;;;;;18.87;4.33;;;;;;;9.07;100.00;99814.44;5054592;28;20204;-74
2024/02/06 06:35:15;;;;;;;16.07;5.40;;;;;;;7.58;100.00;99567.81;5061227;28;20440;-74
2024/02/06 06:37:40;;;;;;;18.30;4.27;;;;;;;8.16;100.00;99655.09;5057137;28;20201;-74
2024/02/06 06:40:07;;;;;;;13.90;3.50;;;;;;;7.67;100.00;99560.38;5059994;28;20218;-74
2024/02/06 06:42:33;;;;;;;17.83;3.90;;;;;;;7.47;100.00;99497.22;5060021;28;20171;-74
2024/02/06 06:44:59;;;;;;;21.10;4.20;;;;;;;7.86;100.00;99625.38;5056222;28;20838;-74
2024/02/06 06:47:24;;;;;;;12.47;3.40;;;;;;;7.10;100.00;99508.63;5059304;28;20198;-74
2024/02/06 06:49:52;;;;;;;19.67;4.20;;;;;;;9.14;100.00;99795.66;5057293;28;20549;-74
2024/02/06 06:52:18;;;;;;;17.70;3.97;;;;;;;8.17;100.00;99685.28;5056882;28;20211;-74
2024/02/06 06:54:43;;;;;;;15.10;3.33;;;;;;;8.98;100.00;99792.47;5059993;28;20436;-74
2024/02/06 06:57:08;;;;;;;19.20;4.60;;;;;;;8.70;100.00;99752.69;5060938;28;20670;-74
2024/02/06 06:59:34;;;;;;;22.73;4.93;;;;;;;7.99;100.00;99643.22;5059163;28;20186;-75
2024/02/06 07:02:00;;;;;;;19.00;4.53;;;;;;;8.69;100.00;99759.09;5062683;28;20240;-74
2024/02/06 07:04:29;;;;;;;16.80;3.60;;;;;;;7.27;100.00;99512.47;5059785;28;20662;-74
2024/02/06 07:06:55;;;;;;;18.87;3.83;;;;;;;7.17;100.00;99480.09;5060344;28;20649;-74
2024/02/06 07:09:26;;;;;;;20.13;4.03;;;;;;;8.27;100.00;99682.97;5061663;28;20473;-74
2024/02/06 07:11:52;;;;;;;23.43;4.73;;;;;;;8.71;100.00;99690.19;5061683;28;20888;-75
2024/02/06 07:14:18;;;;;;;23.10;4.80;;;;;;;7.85;100.00;99576.53;5062295;28;20421;-74
2024/02/06 07:16:44;;;;;;;26.40;3.80;;;;;;;9.73;100.00;99896.22;5055897;28;20426;-74
2024/02/06 07:19:09;;;;;;;18.63;3.93;;;;;;;7.86;100.00;99585.34;5053407;28;20207;-75
2024/02/06 07:21:35;;;;;;;22.80;4.40;;;;;;;8.13;100.00;99628.78;5052918;28;20472;-74
2024/02/06 07:24:01;;;;;;;20.70;3.53;;;;;;;8.38;100.00;99664.44;5055503;28;20218;-74
2024/02/06 07:26:27;;;;;;;22.43;4.20;;;;;;;7.35;100.00;99480.25;5054898;28;20190;-74
2024/02/06 07:28:56;;;;;;;18.33;3.70;;;;;;;7.90;100.00;99582.06;5063002;28;20314;-74
2024/02/06 07:31:21;;;;;;;19.73;3.80;;;;;;;7.75;100.00;99546.78;5053384;28;20464;-74
2024/02/06 07:33:47;;;;;;;19.67;4.20;;;;;;;8.24;100.00;99612.06;5053853;28;20922;-74
2024/02/06 07:36:15;;;;;;;19.83;3.37;;;;;;;8.04;100.00;99525.91;5054250;28;20401;-74
2024/02/06 07:38:43;;;;;;;22.17;4.87;;;;;;;7.08;100.00;99380.84;5054995;28;20200;-74
2024/02/06 07:41:09;;;;;;;20.40;4.20;;;;;;;7.22;100.00;99357.59;5053104;28;20429;-74
2024/02/06 07:43:35;;;;;;;22.60;4.33;;;;;;;7.35;100.00;99388.75;5055217;28;20452;-74
2024/02/06 07:46:02;;;;;;;15.83;3.77;;;;;;;8.04;100.00;99453.78;5055962;28;20217;-74
2024/02/06 07:48:27;;;;;;;17.53;3.50;;;;;;;7.14;100.00;99307.19;5049622;28;20455;-74
2024/02/06 07:50:53;;;;;;;24.57;3.43;;;;;;;7.96;100.00;99438.88;5054518;28;20983;-75
2024/02/06 07:53:18;;;;;;;24.43;4.37;;;;;;;7.88;100.00;99343.03;5053846;28;20191;-74
2024/02/06 07:55:44;;;;;;;25.80;4.40;;;;;;;8.46;100.00;99406.03;5059635;28;20183;-74
2024/02/06 07:58:09;;;;;;;21.67;4.90;;;;;;;8.47;100.00;99399.66;5057038;28;20206;-74
2024/02/06 08:00:35;;;;;;;22.63;4.60;;;;;;;8.40;100.00;99367.66;5055237;28;20270;-75
2024/02/06 08:03:01;;;;;;;16.33;4.23;;;;;;;9.12;100.00;99452.69;5053075;28;20180;-74
2024/02/06 08:05:26;;;;;;;22.43;4.90;;;;;;;9.24;100.00;99486.47;5057376;28;20187;-74
2024/02/06 08:07:52;;;;;;;21.50;4.60;;;;;;;8.36;100.00;99339.69;5059178;28;20997;-74
2024/02/06 08:10:20;;;;;;;21.53;5.57;;;;;;;8.45;100.00;99383.03;5056944;28;20180;-75
2024/02/06 08:12:46;;;;;;;21.13;4.50;;;;;;;8.43;100.00;99102.69;5051555;28;20219;-74
2024/02/06 08:15:11;;;;;;;20.60;4.23;;;;;;;8.60;100.00;99338.06;5053534;28;20529;-74
2024/02/06 08:17:40;;;;;;;24.17;4.70;;;;;;;9.10;100.00;99559.88;5055532;28;20460;-74
2024/02/06 08:20:06;;;;;;;18.13;3.97;;;;;;;9.30;100.00;99661.38;5051432;28;20183;-74
2024/02/06 08:22:32;;;;;;;26.83;5.17;;;;;;;9.20;100.00;99680.59;5054164;28;20426;-74
2024/02/06 08:24:58;;;;;;;19.23;4.57;;;;;;;8.70;100.00;99581.59;5057894;28;20441;-74
2024/02/06 08:27:24;;;;;;;18.07;4.60;;;;;;;8.62;100.00;99557.84;5053749;28;20476;-74
2024/02/06 08:29:49;;;;;;;19.13;3.43;;;;;;;9.09;100.00;99675.94;5052733;28;20655;-74
2024/02/06 08:32:15;;;;;;;21.10;5.03;;;;;;;8.73;100.00;99597.22;5059288;28;20210;-74
2024/02/06 08:34:40;;;;;;;18.50;5.40;;;;;;;8.72;100.00;99600.94;5055575;28;20647;-74
2024/02/06 08:37:06;;;;;;;19.97;4.00;;;;;;;8.48;100.00;99551.75;5054743;28;20644;-74
2024/02/06 08:39:31;;;;;;;25.47;5.67;;;;;;;8.69;100.00;99547.91;5056703;28;20651;-74
2024/02/06 08:41:57;;;;;;;24.43;4.03;;;;;;;8.70;100.00;99540.69;5052056;28;20183;-74
2024/02/06 08:44:22;;;;;;;17.33;3.10;;;;;;;8.82;100.00;99603.09;5065983;22;20231;-77
2024/02/06 08:46:48;;;;;;;24.47;4.70;;;;;;;6.57;100.00;99241.25;5042132;28;20186;-77
2024/02/06 08:49:14;;;;;;;19.93;4.50;;;;;;;7.40;100.00;99349.69;5046623;28;20218;-76
2024/02/06 08:51:39;;;;;;;19.37;3.97;;;;;;;6.87;100.00;99278.00;5046284;28;20200;-76
2024/02/06 08:54:05;;;;;;;26.47;4.60;;;;;;;7.56;100.00;99361.72;5047716;28;20437;-76
2024/02/06 08:56:32;;;;;;;20.23;3.47;;;;;;;6.32;100.00;99129.28;5047966;28;20242;-77
2024/02/06 08:58:58;;;;;;;19.63;3.60;;;;;;;8.47;100.00;99518.03;5039967;28;20218;-76
2024/02/06 09:01:24;;;;;;;16.70;3.33;;;;;;;8.27;100.00;99472.72;5044171;28;20438;-76
2024/02/06 09:03:51;;;;;;;19.10;3.80;;;;;;;7.48;100.00;99306.75;5046318;28;20238;-77
2024/02/06 09:06:17;;;;;;;17.50;3.67;;;;;;;7.66;100.00;99382.59;5046561;28;20941;-77
2024/02/06 09:08:43;;;;;;;25.30;4.10;;;;;;;9.39;100.00;99601.16;5046724;28;20729;-76
2024/02/06 09:11:08;;;;;;;20.03;4.17;;;;;;;8.84;100.00;99579.66;5044943;28;20943;-76
2024/02/06 09:13:34;;;;;;;15.50;3.57;;;;;;;5.95;100.00;99141.53;5044910;28;20206;-76
2024/02/06 09:16:01;;;;;;;24.03;3.50;;;;;;;6.31;100.00;99166.81;5045897;28;20190;-76
2024/02/06 09:18:26;;;;;;;15.27;4.10;;;;;;;8.99;100.00;99565.94;5051297;28;20214;-76
2024/02/06 09:20:52;;;;;;;16.17;3.73;;;;;;;7.69;100.00;99353.66;5049079;28;20445;-77
2024/02/06 09:23:17;;;;;;;20.27;4.10;;;;;;;7.53;100.00;99274.09;5050301;28;20218;-76
2024/02/06 09:25:43;;;;;;;19.53;3.70;;;;;;;7.49;100.00;99286.22;5049073;28;20196;-76
2024/02/06 09:28:09;;;;;;;13.57;3.00;;;;;;;7.87;100.00;99333.38;5047337;28;20207;-76
2024/02/06 09:30:37;;;;;;;15.13;3.57;;;;;;;6.72;100.00;99086.44;5047830;28;20610;-77
2024/02/06 09:33:04;;;;;;;19.93;3.70;;;;;;;8.24;100.00;99406.38;5044824;28;20210;-76
2024/02/06 09:35:29;;;;;;;19.97;3.87;;;;;;;9.11;100.00;99504.53;5040400;28;20455;-77
2024/02/06 09:37:55;;;;;;;15.03;3.33;;;;;;;7.95;100.00;99257.53;5044416;28;20470;-77
2024/02/06 09:40:21;;;;;;;19.50;3.30;;;;;;;9.13;100.00;99449.75;5041547;28;20270;-77
2024/02/06 09:42:47;;;;;;;16.07;3.50;;;;;;;7.42;100.00;99136.91;5042597;28;20203;-76
2024/02/06 09:45:13;;;;;;;17.83;3.20;;;;;;;9.51;100.00;99441.47;5046902;28;20281;-76
2024/02/06 09:47:41;;;;;;;19.30;4.13;;;;;;;8.91;100.00;99341.59;5042606;28;20469;-75
2024/02/06 09:50:08;;;;;;;17.70;3.53;;;;;;;7.00;100.00;98987.38;5055268;28;20452;-76
2024/02/06 09:52:39;;;;;;;21.27;3.57;;;;;;;7.91;100.00;99167.19;5048442;28;20522;-77
2024/02/06 09:55:10;;;;;;;16.90;4.07;;;;;;;7.42;100.00;99066.72;5049419;28;20437;-77
2024/02/06 09:57:38;;;;;;;19.60;3.80;;;;;;;7.70;100.00;99092.91;5047567;28;20952;-76
2024/02/06 10:00:07;;;;;;;18.23;3.67;;;;;;;8.95;100.00;99220.59;5049186;28;20433;-77
2024/02/06 10:02:35;;;;;;;22.10;4.57;;;;;;;7.86;100.00;99072.81;5050928;28;20469;-77
2024/02/06 10:05:03;;;;;;;25.90;6.70;;;;;;;7.42;100.00;98987.53;5049138;28;20563;-76
2024/02/06 10:07:29;;;;;;;19.17;5.07;;;;;;;7.37;100.00;98943.88;5048102;28;20523;-76
2024/02/06 10:09:56;;;;;;;17.73;3.90;;;;;;;8.37;100.00;99107.06;5046499;28;20442;-77
2024/02/06 10:12:22;;;;;;;17.23;4.43;;;;;;;9.03;100.00;99238.19;5050902;28;20503;-76
2024/02/06 10:14:48;;;;;;;18.43;3.77;;;;;;;7.63;100.00;98996.09;5050435;28;20496;-76
2024/02/06 10:17:14;;;;;;;15.63;3.53;;;;;;;7.95;100.00;99020.72;5048373;28;20444;-76
2024/02/06 10:19:39;;;;;;;20.23;4.07;;;;;;;8.36;100.00;99120.63;5046170;28;20184;-78
2024/02/06 10:22:05;;;;;;;23.43;4.60;;;;;;;10.22;100.00;99392.66;5050181;28;20186;-77
2024/02/06 10:24:31;;;;;;;15.80;3.87;;;;;;;9.30;100.00;99205.69;5038611;28;20214;-77
2024/02/06 10:27:02;;;;;;;22.17;4.53;;;;;;;7.43;100.00;98929.66;5044181;28;20283;-77
2024/02/06 10:29:28;;;;;;;17.13;4.33;;;;;;;8.46;100.00;99099.56;5042184;28;20566;-76
2024/02/06 10:31:58;;;;;;;15.83;4.30;;;;;;;9.21;100.00;99181.94;5050454;28;20469;-76
2024/02/06 10:34:25;;;;;;;19.20;4.33;;;;;;;9.04;100.00;99170.28;5051090;28;20461;-77
2024/02/06 10:36:59;;;;;;;22.83;3.87;;;;;;;7.72;100.00;98943.22;5050983;28;20464;-77
2024/02/06 10:39:29;;;;;;;19.43;4.17;;;;;;;8.14;100.00;99038.34;5046901;28;20429;-77
2024/02/06 10:42:02;;;;;;;21.63;4.33;;;;;;;8.64;100.00;99143.31;5045120;28;20442;-77
2024/02/06 10:44:31;;;;;;;18.67;4.60;;;;;;;8.79;100.00;99146.38;5044341;28;20481;-77
2024/02/06 10:47:01;;;;;;;20.43;4.00;;;;;;;9.69;100.00;99287.19;5055328;28;21103;-76
2024/02/06 10:49:27;;;;;;;22.87;4.00;;;;;;;8.81;100.00;99161.16;5043865;28;20986;-76
2024/02/06 10:52:06;;;;;;;24.03;4.23;;;;;;;9.26;100.00;99238.25;5046376;28;21040;-76
2024/02/06 10:54:35;;;;;;;26.27;4.57;;;;;;;8.78;100.00;99148.22;5045848;28;20433;-77
2024/02/06 10:57:06;;;;;;;23.57;4.90;;;;;;;8.00;100.00;99002.19;5045031;28;20542;-77
2024/02/06 10:59:45;;;;;;;27.67;5.43;;;;;;;10.53;100.00;99403.09;5041353;28;20491;-78
2024/02/06 11:02:22;;;;;;;19.53;4.00;;;;;;;7.74;100.00;98970.50;5059218;28;20434;-78
2024/02/06 11:04:52;;;;;;;18.03;4.00;;;;;;;7.76;100.00;99009.28;5041659;28;20438;-77
2024/02/06 11:07:18;;;;;;;23.17;4.47;;;;;;;8.62;100.00;99098.13;5043588;28;20607;-76
2024/02/06 11:09:45;;;;;;;18.87;4.10;;;;;;;9.63;100.00;99269.38;5044529;28;21009;-77
2024/02/06 11:12:14;;;;;;;22.70;4.97;;;;;;;8.92;100.00;99150.72;5050691;28;20466;-77
2024/02/06 11:14:42;;;;;;;19.70;4.07;;;;;;;9.46;100.00;99219.22;5044792;28;20438;-76
2024/02/06 11:17:12;;;;;;;24.37;4.97;;;;;;;9.07;100.00;99201.91;5039813;28;20473;-76
2024/02/06 11:19:58;;;;;;;20.17;4.43;;;;;;;10.47;100.00;99405.84;5045360;28;20930;-76
2024/02/06 11:22:34;;;;;;;33.90;5.70;;;;;;;7.64;100.00;98976.41;5046809;28;21024;-78